Time;durP1;ratioP1;P1;durP2;ratioP2;P2;SDS_P1;SDS_P2;PMS_P1;PMS_P2;Temp;Humidity;BMP_temperature;BMP_pressure;BME280_temperature;BME280_humidity;BME280_pressure;Samples;Min_cycle;Max_cycle;Signal;HPM_P1;HPM_P2
2023/06/30 00:01:23;;;;;;;0.80;0.80;;;22.00;60.00;;;;;;6250201;28;20025;-75
2023/06/30 00:04:27;;;;;;;1.25;0.80;;;22.00;60.00;;;;;;6268999;28;20025;-74
2023/06/30 00:07:28;;;;;;;0.90;0.70;;;21.90;60.00;;;;;;6268208;28;20108;-74
2023/06/30 00:10:28;;;;;;;1.48;0.88;;;22.00;60.10;;;;;;6268377;28;20025;-74
2023/06/30 00:13:29;;;;;;;0.80;0.80;;;22.00;60.10;;;;;;6267714;28;20395;-74
2023/06/30 00:16:31;;;;;;;0.82;0.68;;;22.00;60.10;;;;;;6268122;28;20025;-74
2023/06/30 00:19:32;;;;;;;0.60;0.60;;;22.00;60.00;;;;;;6267986;28;20330;-74
2023/06/30 00:22:36;;;;;;;1.17;0.73;;;22.00;60.10;;;;;;6267889;28;20029;-74
2023/06/30 00:25:36;;;;;;;0.70;0.70;;;21.90;60.00;;;;;;6268114;28;20492;-73
2023/06/30 00:28:37;;;;;;;0.70;0.60;;;22.00;60.10;;;;;;6267719;28;20028;-74
2023/06/30 00:31:37;;;;;;;1.00;0.90;;;21.90;60.00;;;;;;6267567;28;20051;-73
2023/06/30 00:34:38;;;;;;;0.73;0.65;;;21.90;60.00;;;;;;6267564;28;20048;-74
2023/06/30 00:37:39;;;;;;;0.90;0.80;;;22.00;60.00;;;;;;6267396;28;20033;-74
2023/06/30 00:40:39;;;;;;;0.63;0.63;;;21.90;60.00;;;;;;6268071;28;20314;-74
2023/06/30 00:43:40;;;;;;;0.90;0.70;;;22.00;60.20;;;;;;6266510;28;20032;-74
2023/06/30 00:46:40;;;;;;;1.02;0.90;;;21.90;60.00;;;;;;6267226;28;20040;-74
2023/06/30 00:49:41;;;;;;;0.73;0.70;;;21.90;60.00;;;;;;6267147;28;20025;-74
2023/06/30 00:52:45;;;;;;;0.88;0.68;;;22.00;60.10;;;;;;6248725;28;20013;-74
2023/06/30 00:55:45;;;;;;;1.27;0.90;;;22.00;60.10;;;;;;6267330;28;20032;-73
2023/06/30 00:58:46;;;;;;;0.93;0.80;;;21.90;60.00;;;;;;6267063;28;20455;-74
2023/06/30 01:02:05;;;;;;;1.08;0.80;;;22.00;60.20;;;;;;6266964;28;20349;-74
2023/06/30 01:05:20;;;;;;;1.23;0.90;;;21.90;60.00;;;;;;6267259;28;20024;-74
2023/06/30 01:08:38;;;;;;;1.15;0.80;;;22.00;60.10;;;;;;6267238;28;20044;-74
2023/06/30 01:11:39;;;;;;;0.95;0.80;;;22.00;60.20;;;;;;6267688;28;20051;-74
2023/06/30 01:14:42;;;;;;;0.93;0.77;;;21.90;60.00;;;;;;6267003;28;20017;-74
2023/06/30 01:17:53;;;;;;;0.77;0.70;;;22.00;60.20;;;;;;6266959;28;20021;-75
2023/06/30 01:20:55;;;;;;;1.02;0.80;;;21.90;60.00;;;;;;6267163;28;20021;-74
2023/06/30 01:24:02;;;;;;;0.80;0.70;;;21.90;60.00;;;;;;6266775;28;20522;-74
2023/06/30 01:27:04;;;;;;;2.42;0.88;;;21.90;60.00;;;;;;6266920;28;20506;-74
2023/06/30 01:30:05;;;;;;;1.30;1.02;;;22.00;60.20;;;;;;6267230;28;20060;-74
2023/06/30 01:33:06;;;;;;;0.82;0.80;;;21.90;60.00;;;;;;6267022;28;20028;-74
2023/06/30 01:36:08;;;;;;;1.10;0.80;;;21.90;60.00;;;;;;6267041;28;20029;-74
2023/06/30 01:39:08;;;;;;;1.00;0.75;;;21.90;60.00;;;;;;6266452;28;20029;-74
2023/06/30 01:42:09;;;;;;;0.90;0.80;;;21.90;60.00;;;;;;6266995;28;20068;-74
2023/06/30 01:45:12;;;;;;;1.40;1.00;;;21.90;60.10;;;;;;6266396;28;20022;-74
2023/06/30 01:48:13;;;;;;;0.80;0.63;;;21.90;60.10;;;;;;6266331;28;20021;-74
2023/06/30 01:51:14;;;;;;;1.10;0.98;;;21.90;60.20;;;;;;6266691;28;20032;-74
2023/06/30 01:54:15;;;;;;;1.00;0.70;;;21.90;60.00;;;;;;6269358;28;20116;-74
2023/06/30 01:57:15;;;;;;;1.10;0.90;;;21.90;60.10;;;;;;6271484;28;20515;-73
2023/06/30 02:00:16;;;;;;;0.90;0.80;;;22.00;60.20;;;;;;6271078;28;20025;-74
2023/06/30 02:03:17;;;;;;;1.08;0.85;;;21.90;60.10;;;;;;6271419;28;20020;-74
2023/06/30 02:06:17;;;;;;;0.80;0.70;;;21.90;60.20;;;;;;6270836;28;20111;-73
2023/06/30 02:09:18;;;;;;;1.80;1.02;;;21.90;60.10;;;;;;6266600;28;20122;-74
2023/06/30 02:12:19;;;;;;;1.15;0.82;;;21.90;60.20;;;;;;6271201;28;20043;-74
2023/06/30 02:15:19;;;;;;;0.85;0.75;;;21.90;60.20;;;;;;6271054;28;20444;-74
2023/06/30 02:18:22;;;;;;;0.70;0.65;;;21.90;60.10;;;;;;6270530;28;20083;-74
2023/06/30 02:21:24;;;;;;;1.13;1.00;;;21.90;60.20;;;;;;6270836;28;20029;-74
2023/06/30 02:24:25;;;;;;;0.88;0.80;;;21.90;60.20;;;;;;6271117;28;20337;-74
2023/06/30 02:27:29;;;;;;;1.08;0.80;;;21.90;60.10;;;;;;6270453;28;20017;-74
2023/06/30 02:30:29;;;;;;;1.38;0.90;;;21.90;60.20;;;;;;6270371;28;20594;-74
2023/06/30 02:33:30;;;;;;;0.95;0.60;;;21.90;60.10;;;;;;6270318;28;20025;-74
2023/06/30 02:36:31;;;;;;;1.02;0.90;;;21.90;60.20;;;;;;6269959;28;20041;-74
2023/06/30 02:39:32;;;;;;;1.30;1.17;;;21.90;60.20;;;;;;6269578;28;20080;-74
2023/06/30 02:42:32;;;;;;;1.20;0.88;;;21.90;60.10;;;;;;6270338;28;20067;-74
2023/06/30 02:45:33;;;;;;;1.58;1.00;;;21.90;60.20;;;;;;6269982;28;20029;-74
2023/06/30 02:48:33;;;;;;;0.80;0.80;;;21.90;60.20;;;;;;6252175;28;20025;-74
2023/06/30 02:51:34;;;;;;;1.02;0.80;;;21.90;60.20;;;;;;6270342;28;20511;-74
2023/06/30 02:54:35;;;;;;;0.95;0.77;;;21.90;61.10;;;;;;6269893;28;20048;-74
2023/06/30 02:57:35;;;;;;;1.05;0.85;;;21.90;60.20;;;;;;6269882;28;20420;-74
2023/06/30 03:00:36;;;;;;;1.10;1.00;;;21.90;60.20;;;;;;6269324;28;20145;-73
2023/06/30 03:03:38;;;;;;;1.63;1.02;;;21.90;60.20;;;;;;6252097;28;20033;-74
2023/06/30 03:06:39;;;;;;;1.25;1.10;;;21.90;60.20;;;;;;6269129;28;20537;-74
2023/06/30 03:09:39;;;;;;;1.08;0.93;;;21.90;60.20;;;;;;6269641;28;20095;-74
2023/06/30 03:12:40;;;;;;;1.17;1.05;;;21.90;60.20;;;;;;6269410;28;20035;-74
2023/06/30 03:15:40;;;;;;;1.40;0.95;;;21.90;60.20;;;;;;6269404;28;20032;-74
2023/06/30 03:18:41;;;;;;;1.30;1.08;;;21.90;60.20;;;;;;6269445;28;20041;-74
2023/06/30 03:21:42;;;;;;;1.13;1.00;;;22.00;60.30;;;;;;6269506;28;20035;-74
2023/06/30 03:24:42;;;;;;;1.30;1.02;;;21.90;60.20;;;;;;6268737;28;20119;-74
2023/06/30 03:27:43;;;;;;;1.25;0.95;;;21.90;60.20;;;;;;6269102;28;20074;-74
2023/06/30 03:30:43;;;;;;;0.85;0.80;;;21.90;60.30;;;;;;6269075;28;20061;-74
2023/06/30 03:33:44;;;;;;;1.25;0.98;;;21.90;60.20;;;;;;6269176;28;20079;-74
2023/06/30 03:36:45;;;;;;;1.00;0.90;;;21.90;60.20;;;;;;6269127;28;20029;-74
2023/06/30 03:39:45;;;;;;;1.23;0.95;;;21.90;60.20;;;;;;6268901;28;20050;-74
2023/06/30 03:42:46;;;;;;;1.10;1.00;;;21.90;60.20;;;;;;6268712;28;20496;-74
2023/06/30 03:45:47;;;;;;;1.50;1.10;;;21.90;60.30;;;;;;6268906;28;20032;-74
2023/06/30 03:48:48;;;;;;;1.33;0.95;;;21.90;60.30;;;;;;6268321;28;20021;-74
2023/06/30 03:51:49;;;;;;;1.30;1.02;;;21.90;60.30;;;;;;6269073;28;20028;-74
2023/06/30 03:54:50;;;;;;;1.38;1.00;;;21.90;60.20;;;;;;6268075;28;20542;-74
2023/06/30 03:57:51;;;;;;;1.13;0.70;;;21.90;60.30;;;;;;6268454;28;20048;-74
2023/06/30 04:00:51;;;;;;;0.88;0.82;;;21.90;60.30;;;;;;6268510;28;20029;-74
2023/06/30 04:03:52;;;;;;;1.17;1.02;;;22.00;60.40;;;;;;6268301;28;20017;-74
2023/06/30 04:06:53;;;;;;;1.38;1.20;;;21.90;60.30;;;;;;6268437;28;20025;-74
2023/06/30 04:09:54;;;;;;;1.73;1.20;;;21.90;60.30;;;;;;6267607;28;20032;-74
2023/06/30 04:12:54;;;;;;;1.27;1.02;;;21.90;60.20;;;;;;6250710;28;20400;-75
2023/06/30 04:15:55;;;;;;;1.02;0.95;;;21.90;60.30;;;;;;6267872;28;20480;-74
2023/06/30 04:18:55;;;;;;;1.33;1.10;;;21.90;60.30;;;;;;6268138;28;20110;-74
2023/06/30 04:21:56;;;;;;;1.10;1.00;;;21.90;60.30;;;;;;6250115;28;20044;-74
2023/06/30 04:24:56;;;;;;;1.17;1.08;;;21.90;60.30;;;;;;6267255;28;20021;-74
2023/06/30 04:27:57;;;;;;;1.20;1.05;;;21.90;60.30;;;;;;6267766;28;20021;-74
2023/06/30 04:31:03;;;;;;;1.20;0.93;;;21.90;60.30;;;;;;6245210;28;20040;-74
2023/06/30 04:34:03;;;;;;;1.48;1.20;;;22.00;60.40;;;;;;6266123;28;20075;-74
2023/06/30 04:37:04;;;;;;;1.65;1.10;;;21.90;60.30;;;;;;6266142;28;20029;-73
2023/06/30 04:40:05;;;;;;;1.30;1.17;;;21.90;60.30;;;;;;6266307;28;20053;-74
2023/06/30 04:43:12;;;;;;;1.40;1.10;;;21.90;60.30;;;;;;6267311;28;20566;-74
2023/06/30 04:46:12;;;;;;;1.20;1.10;;;21.90;60.30;;;;;;6266287;28;20024;-74
2023/06/30 04:49:13;;;;;;;1.42;1.30;;;22.00;60.40;;;;;;6263696;28;20379;-74
2023/06/30 04:52:14;;;;;;;1.40;1.05;;;21.90;60.30;;;;;;6266313;28;20076;-74
2023/06/30 04:55:14;;;;;;;1.38;1.10;;;21.90;60.30;;;;;;6266890;28;20017;-75
2023/06/30 04:58:15;;;;;;;1.55;1.30;;;21.90;60.30;;;;;;6247035;28;20433;-74
2023/06/30 05:01:15;;;;;;;1.45;1.00;;;21.90;60.40;;;;;;6257696;28;20025;-74
2023/06/30 05:04:16;;;;;;;1.23;1.13;;;21.90;60.40;;;;;;6267046;28;20029;-74
2023/06/30 05:07:17;;;;;;;1.40;1.10;;;21.90;60.40;;;;;;6267502;28;20013;-74
2023/06/30 05:10:17;;;;;;;1.10;1.00;;;21.90;60.30;;;;;;6258383;28;20480;-74
2023/06/30 05:13:18;;;;;;;1.48;1.27;;;21.90;60.30;;;;;;6268700;28;20502;-74
2023/06/30 05:16:19;;;;;;;1.27;1.17;;;21.90;60.30;;;;;;6267271;28;20075;-74
2023/06/30 05:19:20;;;;;;;1.52;1.27;;;22.00;60.40;;;;;;6268352;28;20033;-74
2023/06/30 05:22:20;;;;;;;2.90;1.30;;;21.90;60.40;;;;;;6267947;28;20033;-74
2023/06/30 05:25:21;;;;;;;1.63;1.30;;;21.90;60.30;;;;;;6267600;28;20064;-74
2023/06/30 05:28:21;;;;;;;1.15;1.00;;;21.90;60.40;;;;;;6269069;28;20075;-74
2023/06/30 05:31:22;;;;;;;1.40;1.30;;;21.90;60.30;;;;;;6272137;28;20128;-74
2023/06/30 05:34:23;;;;;;;1.38;1.10;;;21.90;60.30;;;;;;6272995;28;20040;-76
2023/06/30 05:37:23;;;;;;;1.10;1.00;;;21.90;60.40;;;;;;6272371;28;20522;-74
2023/06/30 05:40:24;;;;;;;1.40;1.20;;;21.90;60.40;;;;;;6272950;28;20064;-74
2023/06/30 05:43:25;;;;;;;1.27;1.10;;;21.90;60.30;;;;;;6272426;28;20466;-74
2023/06/30 05:46:26;;;;;;;1.10;1.00;;;21.90;60.30;;;;;;6271753;28;20029;-74
2023/06/30 05:49:27;;;;;;;1.85;1.38;;;21.90;60.30;;;;;;6272848;28;20124;-74
2023/06/30 05:52:28;;;;;;;1.30;1.10;;;21.90;60.40;;;;;;6272487;28;20082;-74
2023/06/30 05:55:28;;;;;;;1.30;1.20;;;21.90;60.30;;;;;;6262355;28;20499;-74
2023/06/30 05:58:29;;;;;;;1.40;1.13;;;21.90;60.30;;;;;;6265584;28;20086;-74
2023/06/30 06:01:30;;;;;;;1.58;1.17;;;21.90;60.30;;;;;;6262122;28;20555;-74
2023/06/30 06:04:30;;;;;;;1.48;1.20;;;21.90;60.40;;;;;;6257937;28;20060;-74
2023/06/30 06:07:31;;;;;;;1.88;1.67;;;21.90;60.30;;;;;;6254926;28;20371;-74
2023/06/30 06:10:32;;;;;;;1.50;1.10;;;21.90;60.30;;;;;;6247922;28;20377;-74
2023/06/30 06:13:37;;;;;;;1.25;1.10;;;21.90;60.30;;;;;;6263762;28;20032;-74
2023/06/30 06:16:37;;;;;;;;;;;21.90;60.30;;;;;;6258798;28;20123;-74
2023/06/30 06:19:38;;;;;;;1.10;1.00;;;21.90;60.30;;;;;;6252066;28;19920;-74
2023/06/30 06:22:38;;;;;;;1.60;1.17;;;21.90;60.40;;;;;;6246831;28;20071;-74
2023/06/30 06:25:39;;;;;;;1.80;1.20;;;21.90;60.30;;;;;;6251285;28;20020;-74
2023/06/30 06:28:39;;;;;;;1.63;1.33;;;21.90;60.30;;;;;;6266711;28;20535;-74
2023/06/30 06:31:40;;;;;;;1.77;1.30;;;21.90;60.80;;;;;;6264466;28;20045;-73
2023/06/30 06:34:41;;;;;;;1.20;1.00;;;21.90;60.40;;;;;;6271615;28;20480;-74
2023/06/30 06:37:41;;;;;;;1.63;1.30;;;21.90;60.40;;;;;;6271225;28;20104;-74
2023/06/30 06:40:42;;;;;;;1.10;0.93;;;21.90;60.30;;;;;;6269671;28;20383;-74
2023/06/30 06:43:42;;;;;;;1.55;1.20;;;22.00;60.40;;;;;;6271129;28;20017;-74
2023/06/30 06:46:43;;;;;;;1.83;1.30;;;21.90;60.30;;;;;;6272190;28;20489;-74
2023/06/30 06:49:44;;;;;;;1.63;0.93;;;21.90;60.40;;;;;;6257776;28;20555;-74
2023/06/30 06:52:44;;;;;;;1.38;1.10;;;21.90;60.40;;;;;;6250326;28;20041;-74
2023/06/30 06:55:49;;;;;;;1.23;1.00;;;21.90;60.40;;;;;;6269939;28;20100;-74
2023/06/30 06:58:50;;;;;;;1.40;1.15;;;21.90;60.40;;;;;;6270784;28;20060;-74
2023/06/30 07:01:51;;;;;;;1.60;1.30;;;21.90;60.40;;;;;;6253703;28;20074;-74
2023/06/30 07:04:51;;;;;;;1.15;0.98;;;21.90;60.30;;;;;;6271091;28;20021;-75
2023/06/30 07:07:52;;;;;;;1.30;1.15;;;21.90;60.30;;;;;;6270803;28;20017;-74
2023/06/30 07:10:52;;;;;;;2.00;1.35;;;21.90;60.40;;;;;;6255922;28;20037;-74
2023/06/30 07:13:53;;;;;;;1.63;1.45;;;21.90;60.40;;;;;;6260599;28;20508;-75
2023/06/30 07:16:54;;;;;;;1.58;1.30;;;21.90;60.40;;;;;;6271058;28;20055;-74
2023/06/30 07:19:54;;;;;;;2.20;1.30;;;21.90;60.30;;;;;;6270813;28;20096;-74
2023/06/30 07:22:56;;;;;;;1.55;1.15;;;21.90;60.40;;;;;;6270069;28;20047;-74
2023/06/30 07:25:57;;;;;;;1.35;1.15;;;21.90;60.40;;;;;;6257847;28;20497;-74
2023/06/30 07:28:57;;;;;;;4.35;1.30;;;21.90;60.40;;;;;;6258810;28;20022;-74
2023/06/30 07:31:58;;;;;;;1.85;1.13;;;21.90;60.40;;;;;;6264750;28;20042;-74
2023/06/30 07:34:59;;;;;;;3.60;1.25;;;21.90;60.40;;;;;;6262181;28;20029;-74
2023/06/30 07:38:00;;;;;;;1.70;1.38;;;21.90;60.40;;;;;;6270408;28;20350;-75
2023/06/30 07:41:01;;;;;;;1.80;1.40;;;21.90;60.40;;;;;;6270552;28;20033;-74
2023/06/30 07:44:02;;;;;;;1.60;1.38;;;21.90;60.40;;;;;;6270081;28;20477;-74
2023/06/30 07:47:03;;;;;;;1.60;1.15;;;21.90;60.30;;;;;;6270419;28;20025;-74
2023/06/30 07:50:09;;;;;;;1.58;1.08;;;21.90;60.40;;;;;;6270655;28;20021;-73
2023/06/30 07:53:09;;;;;;;1.30;1.15;;;21.90;60.40;;;;;;6269877;28;20056;-74
2023/06/30 07:56:10;;;;;;;1.80;1.35;;;21.90;60.30;;;;;;6269696;28;20033;-74
2023/06/30 07:59:11;;;;;;;2.05;1.55;;;21.90;60.40;;;;;;6250209;28;20041;-74
2023/06/30 08:02:11;;;;;;;1.10;1.00;;;21.90;60.40;;;;;;6255488;28;20025;-74
2023/06/30 08:05:12;;;;;;;1.70;1.42;;;21.90;60.40;;;;;;6256695;28;20432;-74
2023/06/30 08:08:13;;;;;;;1.83;1.63;;;21.90;60.40;;;;;;6264318;28;20025;-73
2023/06/30 08:11:13;;;;;;;1.23;1.10;;;21.90;60.40;;;;;;6269347;28;20023;-74
2023/06/30 08:14:14;;;;;;;1.63;1.30;;;21.90;60.40;;;;;;6264620;28;20434;-73
2023/06/30 08:17:15;;;;;;;2.17;1.30;;;21.90;60.40;;;;;;6244288;28;20025;-73
2023/06/30 08:20:16;;;;;;;2.42;1.58;;;21.90;60.30;;;;;;6257109;28;20365;-74
2023/06/30 08:23:17;;;;;;;1.85;1.30;;;21.90;60.40;;;;;;6267669;28;20025;-74
2023/06/30 08:26:17;;;;;;;1.75;1.35;;;21.90;60.40;;;;;;6268744;28;20028;-73
2023/06/30 08:29:18;;;;;;;1.70;1.10;;;21.90;60.40;;;;;;6269591;28;20068;-74
2023/06/30 08:32:19;;;;;;;2.03;1.45;;;21.90;60.30;;;;;;6267868;28;20060;-73
2023/06/30 08:35:19;;;;;;;1.65;1.30;;;22.00;60.50;;;;;;6281543;28;20051;-74
2023/06/30 08:38:20;;;;;;;1.30;1.20;;;21.90;60.40;;;;;;6277027;28;20116;-74
2023/06/30 08:41:21;;;;;;;1.90;1.50;;;21.90;60.40;;;;;;6268453;28;20057;-74
2023/06/30 08:44:24;;;;;;;1.55;1.30;;;21.90;60.40;;;;;;6268901;28;20078;-74
2023/06/30 08:47:28;;;;;;;2.08;1.30;;;21.90;60.40;;;;;;6258695;28;20037;-74
2023/06/30 08:50:29;;;;;;;1.33;1.23;;;21.90;60.40;;;;;;6268889;28;20028;-74
2023/06/30 08:53:33;;;;;;;2.03;1.38;;;21.90;60.40;;;;;;6263575;28;20040;-73
2023/06/30 08:56:38;;;;;;;1.83;1.33;;;21.90;60.30;;;;;;6258424;28;20036;-74
2023/06/30 08:59:39;;;;;;;2.13;1.58;;;21.90;60.40;;;;;;6269491;28;20175;-74
2023/06/30 09:02:41;;;;;;;1.83;1.33;;;21.90;60.40;;;;;;6285461;28;20482;-74
2023/06/30 09:05:43;;;;;;;1.63;1.35;;;21.90;60.40;;;;;;6268421;28;20013;-74
2023/06/30 09:08:54;;;;;;;1.70;1.30;;;21.90;60.30;;;;;;6268259;28;20135;-74
2023/06/30 09:11:56;;;;;;;1.55;1.23;;;21.90;60.40;;;;;;6268814;28;20622;-74
2023/06/30 09:15:01;;;;;;;1.40;1.20;;;21.90;60.40;;;;;;6268206;28;20043;-74
2023/06/30 09:18:01;;;;;;;1.75;1.38;;;21.90;60.40;;;;;;6268128;28;20116;-74
2023/06/30 09:21:05;;;;;;;3.30;1.40;;;21.90;60.40;;;;;;6268486;28;20021;-74
2023/06/30 09:24:06;;;;;;;2.25;1.60;;;21.90;60.30;;;;;;6267872;28;20021;-74
2023/06/30 09:27:10;;;;;;;1.75;1.40;;;21.90;60.30;;;;;;6260675;28;20417;-74
2023/06/30 09:30:12;;;;;;;1.80;1.40;;;21.90;60.30;;;;;;6267469;28;20084;-74
2023/06/30 09:33:15;;;;;;;2.08;1.50;;;21.90;60.40;;;;;;6263864;28;20066;-74
2023/06/30 09:36:19;;;;;;;1.75;1.40;;;21.90;60.30;;;;;;6245161;28;20039;-74
2023/06/30 09:39:20;;;;;;;1.80;1.23;;;21.90;60.30;;;;;;6259743;28;20361;-73
2023/06/30 09:42:21;;;;;;;1.60;1.25;;;21.90;60.30;;;;;;6261599;28;20484;-74
2023/06/30 09:45:22;;;;;;;2.00;1.35;;;21.90;60.30;;;;;;6246334;28;20067;-74
2023/06/30 09:48:29;;;;;;;1.70;1.30;;;22.00;60.40;;;;;;6268078;28;20029;-75
2023/06/30 09:51:32;;;;;;;1.70;1.30;;;21.90;60.30;;;;;;6269460;28;20033;-73
2023/06/30 09:54:35;;;;;;;1.60;1.48;;;22.00;60.40;;;;;;6268126;28;20021;-73
2023/06/30 09:57:43;;;;;;;2.20;1.55;;;22.00;60.40;;;;;;6268077;28;20033;-74
2023/06/30 10:00:45;;;;;;;2.10;1.42;;;21.90;60.30;;;;;;6247134;28;20044;-73
2023/06/30 10:03:50;;;;;;;2.58;1.50;;;22.00;61.30;;;;;;6267699;28;20020;-74
2023/06/30 10:06:52;;;;;;;1.70;1.40;;;21.90;60.30;;;;;;6268278;28;20032;-73
2023/06/30 10:09:54;;;;;;;2.15;1.50;;;22.00;60.40;;;;;;6261679;28;20291;-76
2023/06/30 10:12:56;;;;;;;2.25;1.70;;;21.90;60.40;;;;;;6267669;28;20472;-74
2023/06/30 10:15:57;;;;;;;1.88;1.60;;;21.90;60.30;;;;;;6270605;28;20036;-73
2023/06/30 10:19:01;;;;;;;2.05;1.45;;;22.00;60.50;;;;;;6271942;28;20468;-73
2023/06/30 10:22:03;;;;;;;1.77;1.33;;;21.90;60.30;;;;;;6271801;28;20475;-73
2023/06/30 10:25:08;;;;;;;2.10;1.60;;;22.00;60.50;;;;;;6267923;28;20048;-73
2023/06/30 10:28:08;;;;;;;;;;;21.90;60.40;;;;;;6273219;28;20082;-73
2023/06/30 10:31:09;;;;;;;1.90;1.58;;;21.90;60.40;;;;;;6270834;28;19917;-74
2023/06/30 10:34:11;;;;;;;1.48;1.23;;;21.90;61.20;;;;;;6271762;28;20045;-74
2023/06/30 10:37:12;;;;;;;2.60;1.65;;;22.00;60.40;;;;;;6271887;28;20032;-73
2023/06/30 10:40:27;;;;;;;2.70;1.80;;;22.00;60.40;;;;;;6253812;28;20025;-74
2023/06/30 10:43:27;;;;;;;1.67;1.40;;;22.00;60.50;;;;;;6271831;28;20025;-73
2023/06/30 10:46:44;;;;;;;2.03;1.58;;;22.00;60.50;;;;;;6271879;28;20028;-74
2023/06/30 10:49:45;;;;;;;1.77;1.50;;;22.00;60.50;;;;;;6271821;28;20029;-73
2023/06/30 10:52:51;;;;;;;1.98;1.65;;;21.90;60.40;;;;;;6253845;28;20193;-74
2023/06/30 10:55:56;;;;;;;1.50;1.40;;;22.00;60.40;;;;;;6271521;28;20131;-73
2023/06/30 10:59:00;;;;;;;;;;;22.00;60.60;;;;;;6271620;28;20044;-74
2023/06/30 11:02:14;;;;;;;2.15;1.60;;;22.00;60.40;;;;;;6270838;28;19909;-73
2023/06/30 11:05:21;;;;;;;2.80;1.73;;;22.00;60.50;;;;;;6271580;28;20070;-74
2023/06/30 11:08:22;;;;;;;2.17;1.55;;;22.00;60.60;;;;;;6270983;28;20458;-74
2023/06/30 11:11:23;;;;;;;2.63;1.50;;;22.00;60.50;;;;;;6271242;28;20062;-74
2023/06/30 11:14:31;;;;;;;1.80;1.55;;;21.90;60.40;;;;;;6270375;28;20468;-73
2023/06/30 11:17:51;;;;;;;1.92;1.60;;;22.00;60.60;;;;;;6271133;28;20107;-74
2023/06/30 11:20:59;;;;;;;2.25;1.77;;;21.90;60.40;;;;;;6270227;28;20021;-74
2023/06/30 11:24:00;;;;;;;2.45;1.80;;;22.00;60.60;;;;;;6270915;28;20043;-73
2023/06/30 11:27:04;;;;;;;2.35;1.92;;;22.00;60.60;;;;;;6270458;28;20029;-73
2023/06/30 11:30:06;;;;;;;1.98;1.42;;;21.90;60.40;;;;;;6270483;28;20045;-73
2023/06/30 11:33:07;;;;;;;1.90;1.70;;;21.90;60.40;;;;;;6270955;28;20028;-74
2023/06/30 11:36:17;;;;;;;1.98;1.63;;;22.00;60.50;;;;;;6270414;28;20419;-73
2023/06/30 11:39:18;;;;;;;2.63;1.80;;;22.00;60.50;;;;;;6270362;28;20039;-73
2023/06/30 11:42:22;;;;;;;2.05;1.65;;;21.90;60.40;;;;;;6269902;28;20511;-73
2023/06/30 11:45:27;;;;;;;2.23;1.80;;;21.90;60.50;;;;;;6270137;28;20555;-74
2023/06/30 11:48:38;;;;;;;1.85;1.60;;;21.90;60.40;;;;;;6270459;28;20059;-74
2023/06/30 11:51:39;;;;;;;1.98;1.70;;;22.00;60.60;;;;;;6270205;28;20044;-74
2023/06/30 11:54:40;;;;;;;2.13;1.67;;;22.00;60.60;;;;;;6270258;28;20021;-74
2023/06/30 11:57:44;;;;;;;2.40;1.83;;;22.00;60.60;;;;;;6248949;28;20111;-73
2023/06/30 12:00:46;;;;;;;2.60;1.90;;;22.00;60.60;;;;;;6269356;28;20017;-74
2023/06/30 12:03:52;;;;;;;2.20;1.60;;;22.00;60.60;;;;;;6270114;28;20032;-74
2023/06/30 12:06:55;;;;;;;2.38;1.80;;;21.90;60.40;;;;;;6270031;28;20137;-73
2023/06/30 12:10:00;;;;;;;2.00;1.55;;;22.00;60.60;;;;;;6260128;28;20026;-75
2023/06/30 12:13:08;;;;;;;2.35;1.60;;;22.00;60.60;;;;;;6269518;28;20434;-74
2023/06/30 12:16:09;;;;;;;1.98;1.50;;;21.90;60.50;;;;;;6261955;28;20503;-74
2023/06/30 12:19:10;;;;;;;2.40;1.60;;;22.00;60.60;;;;;;6239181;28;20103;-74
2023/06/30 12:22:12;;;;;;;2.20;1.63;;;21.90;60.50;;;;;;6251778;28;20558;-74
2023/06/30 12:25:14;;;;;;;1.95;1.55;;;21.90;60.50;;;;;;6269532;28;20024;-74
2023/06/30 12:28:16;;;;;;;2.65;1.77;;;22.00;60.60;;;;;;6269833;28;20518;-74
2023/06/30 12:31:17;;;;;;;1.70;1.45;;;21.90;60.40;;;;;;6264439;28;20139;-73
2023/06/30 12:34:34;;;;;;;1.80;1.60;;;21.90;60.50;;;;;;6269163;28;20162;-74
2023/06/30 12:37:35;;;;;;;1.98;1.52;;;22.00;60.60;;;;;;6267833;28;20526;-74
2023/06/30 12:40:37;;;;;;;1.90;1.50;;;22.00;60.60;;;;;;6269127;28;20029;-74
2023/06/30 12:43:38;;;;;;;3.08;1.67;;;21.90;60.50;;;;;;6268394;28;20095;-73
2023/06/30 12:46:39;;;;;;;2.83;1.73;;;22.00;60.60;;;;;;6268891;28;20067;-74
2023/06/30 12:49:39;;;;;;;2.35;1.83;;;22.00;60.60;;;;;;6269305;28;20555;-74
2023/06/30 12:52:40;;;;;;;1.85;1.63;;;22.00;60.70;;;;;;6268596;28;20104;-74
2023/06/30 12:55:40;;;;;;;4.95;2.65;;;21.90;60.60;;;;;;6268928;28;20025;-74
2023/06/30 12:58:41;;;;;;;5.43;3.90;;;21.90;62.90;;;;;;6269177;28;20060;-73
2023/06/30 13:01:42;;;;;;;5.35;2.70;;;21.90;65.00;;;;;;6268795;28;20025;-74
2023/06/30 13:04:42;;;;;;;7.18;3.95;;;21.90;64.80;;;;;;6269097;28;20031;-74
2023/06/30 13:07:43;;;;;;;5.35;3.30;;;21.90;65.70;;;;;;6268852;28;20009;-74
2023/06/30 13:10:43;;;;;;;6.50;3.97;;;21.90;64.30;;;;;;6252589;28;20056;-74
2023/06/30 13:13:44;;;;;;;5.85;3.88;;;21.90;64.70;;;;;;6267947;28;20037;-74
2023/06/30 13:16:44;;;;;;;5.60;3.03;;;21.90;64.60;;;;;;6268495;28;20025;-74
2023/06/30 13:19:45;;;;;;;5.32;2.97;;;21.90;64.60;;;;;;6268828;28;20112;-74
2023/06/30 13:22:46;;;;;;;6.15;3.63;;;21.90;63.90;;;;;;6268419;28;20044;-74
2023/06/30 13:25:46;;;;;;;10.32;5.57;;;21.90;65.40;;;;;;6266671;28;20056;-73
2023/06/30 13:28:47;;;;;;;7.45;5.30;;;21.90;67.20;;;;;;6268625;28;20027;-74
2023/06/30 13:31:48;;;;;;;5.00;3.55;;;21.90;67.30;;;;;;6267651;28;20114;-73
2023/06/30 13:34:49;;;;;;;7.07;4.90;;;21.90;65.80;;;;;;6268425;28;20057;-74
2023/06/30 13:37:50;;;;;;;7.05;4.85;;;21.90;66.50;;;;;;6255984;28;20621;-74
2023/06/30 13:40:50;;;;;;;10.68;6.13;;;21.90;66.50;;;;;;6250410;28;20027;-74
2023/06/30 13:43:51;;;;;;;6.55;4.20;;;21.90;67.70;;;;;;6268516;28;20071;-74
2023/06/30 13:46:52;;;;;;;7.93;5.30;;;21.90;66.60;;;;;;6249804;28;20102;-74
2023/06/30 13:49:52;;;;;;;8.52;5.85;;;21.90;66.90;;;;;;6270937;28;20060;-74
2023/06/30 13:52:53;;;;;;;8.68;5.63;;;21.90;68.40;;;;;;6259068;28;20136;-74
2023/06/30 13:55:56;;;;;;;10.90;5.18;;;21.90;69.20;;;;;;6251264;28;20448;-73
2023/06/30 13:58:56;;;;;;;7.30;5.20;;;21.90;68.00;;;;;;6264231;28;20033;-74
2023/06/30 14:01:57;;;;;;;9.35;5.47;;;21.90;67.60;;;;;;6257634;28;20032;-74
2023/06/30 14:04:58;;;;;;;8.70;4.70;;;21.90;67.60;;;;;;6272501;28;20028;-74
2023/06/30 14:07:58;;;;;;;8.63;4.10;;;21.90;67.30;;;;;;6271960;28;20566;-74
2023/06/30 14:10:59;;;;;;;6.28;4.53;;;21.90;67.30;;;;;;6263165;28;20041;-74
2023/06/30 14:14:03;;;;;;;6.68;4.18;;;21.90;67.40;;;;;;6272948;28;20100;-74
2023/06/30 14:17:04;;;;;;;5.45;3.88;;;21.90;67.10;;;;;;6266835;28;20025;-73
2023/06/30 14:20:05;;;;;;;6.20;3.90;;;21.90;67.50;;;;;;6271097;28;20037;-73
2023/06/30 14:23:05;;;;;;;5.35;3.47;;;21.90;67.60;;;;;;6272067;28;20021;-73
2023/06/30 14:26:06;;;;;;;12.50;5.10;;;21.90;66.60;;;;;;6254977;28;20016;-73
2023/06/30 14:29:06;;;;;;;9.00;4.80;;;21.90;68.00;;;;;;6272245;28;20028;-74
2023/06/30 14:32:08;;;;;;;5.65;3.92;;;21.90;67.60;;;;;;6244029;28;20060;-74
2023/06/30 14:35:12;;;;;;;8.45;3.50;;;21.90;67.20;;;;;;6271635;28;20021;-73
2023/06/30 14:38:12;;;;;;;5.93;3.58;;;21.90;66.70;;;;;;6272469;28;20387;-73
2023/06/30 14:41:13;;;;;;;5.22;3.70;;;21.90;66.00;;;;;;6272170;28;20044;-73
2023/06/30 14:44:14;;;;;;;6.28;3.38;;;21.90;65.60;;;;;;6272149;28;20048;-73
2023/06/30 14:47:14;;;;;;;7.03;3.80;;;21.90;64.60;;;;;;6271986;28;20167;-73
2023/06/30 14:50:16;;;;;;;5.10;3.30;;;21.90;65.70;;;;;;6272038;28;20029;-73
2023/06/30 14:53:16;;;;;;;6.25;3.95;;;21.90;66.40;;;;;;6272143;28;20035;-73
2023/06/30 14:56:17;;;;;;;5.55;3.75;;;21.90;66.50;;;;;;6271903;28;20013;-74
2023/06/30 14:59:17;;;;;;;3.85;2.85;;;21.90;65.10;;;;;;6271421;28;20523;-73
2023/06/30 15:02:18;;;;;;;4.43;3.10;;;21.90;63.90;;;;;;6268042;28;20055;-73
2023/06/30 15:05:19;;;;;;;3.83;3.03;;;22.00;63.30;;;;;;6271694;28;20029;-73
2023/06/30 15:08:20;;;;;;;4.63;3.10;;;22.00;63.30;;;;;;6269047;28;20027;-74
2023/06/30 15:11:21;;;;;;;5.93;3.13;;;22.00;63.60;;;;;;6256636;28;20032;-74
2023/06/30 15:14:22;;;;;;;3.92;2.75;;;22.00;63.20;;;;;;6271660;28;20064;-73
2023/06/30 15:17:23;;;;;;;4.63;2.92;;;21.90;64.20;;;;;;6271340;28;20036;-73
2023/06/30 15:20:24;;;;;;;7.00;2.83;;;21.90;65.70;;;;;;6271035;28;20031;-74
2023/06/30 15:23:24;;;;;;;3.72;2.55;;;21.90;65.80;;;;;;6269544;28;20029;-73
2023/06/30 15:26:25;;;;;;;4.70;2.60;;;22.00;64.90;;;;;;6270878;28;20075;-74
2023/06/30 15:29:25;;;;;;;9.75;3.78;;;22.10;64.90;;;;;;6270256;28;20032;-73
2023/06/30 15:32:26;;;;;;;13.60;4.65;;;22.20;64.50;;;;;;6271112;28;20037;-75
2023/06/30 15:35:26;;;;;;;19.48;4.78;;;22.20;64.30;;;;;;6270048;28;20017;-74
2023/06/30 15:38:27;;;;;;;16.30;4.93;;;22.40;64.60;;;;;;6270828;28;20033;-72
2023/06/30 15:41:28;;;;;;;15.40;4.47;;;22.40;63.90;;;;;;6270395;28;20017;-72
2023/06/30 15:44:28;;;;;;;16.80;5.03;;;22.30;64.90;;;;;;6270795;28;20063;-72
2023/06/30 15:47:29;;;;;;;20.38;5.00;;;22.30;64.10;;;;;;6270340;28;20025;-73